Time;durP1;ratioP1;P1;durP2;ratioP2;P2;SDS_P1;SDS_P2;PMS_P1;PMS_P2;Temp;Humidity;BMP_temperature;BMP_pressure;BME280_temperature;BME280_humidity;BME280_pressure;Samples;Min_cycle;Max_cycle;Signal;HPM_P1;HPM_P2
2021/11/04 00:02:04;;;;;;;3.17;2.80;;;;;;;7.16;99.39;95185.56;5093857;28;20239;-63
2021/11/04 00:04:29;;;;;;;3.73;2.60;;;;;;;7.06;99.97;95188.88;5092930;28;20231;-63
2021/11/04 00:06:55;;;;;;;4.00;2.90;;;;;;;7.09;99.83;95190.97;5093439;28;20197;-63
2021/11/04 00:09:20;;;;;;;3.10;2.90;;;;;;;7.19;98.71;95189.53;5093403;28;20220;-63
2021/11/04 00:11:46;;;;;;;4.40;3.47;;;;;;;7.14;99.27;95174.59;5095539;28;20185;-63
2021/11/04 00:14:12;;;;;;;3.13;2.83;;;;;;;7.25;98.71;95165.84;5093270;28;20543;-63
2021/11/04 00:16:37;;;;;;;3.47;2.40;;;;;;;7.29;96.03;95159.16;5094920;28;20585;-65
2021/11/04 00:19:03;;;;;;;3.17;2.83;;;;;;;7.15;97.14;95154.56;5093332;28;20173;-63
2021/11/04 00:21:28;;;;;;;1.77;1.67;;;;;;;7.36;94.04;95153.72;5094184;28;20192;-63
2021/11/04 00:23:54;;;;;;;2.30;2.07;;;;;;;7.38;93.55;95139.41;5094705;28;20200;-63
2021/11/04 00:26:19;;;;;;;1.60;1.50;;;;;;;7.27;93.54;95142.16;5099684;28;20291;-63
2021/11/04 00:28:45;;;;;;;1.50;1.40;;;;;;;7.13;94.09;95148.81;5092544;28;20185;-63
2021/11/04 00:31:12;;;;;;;1.70;1.60;;;;;;;7.16;94.37;95140.50;5100210;28;20181;-62
2021/11/04 00:33:37;;;;;;;1.80;1.70;;;;;;;7.29;93.60;95132.31;5090600;28;20177;-63
2021/11/04 00:36:03;;;;;;;1.60;1.50;;;;;;;7.17;94.81;95129.06;5086015;28;20631;-62
2021/11/04 00:38:28;;;;;;;1.27;1.27;;;;;;;7.15;94.87;95136.31;5094301;28;20249;-63
2021/11/04 00:40:55;;;;;;;1.10;1.10;;;;;;;7.21;92.45;95130.91;5093030;28;20181;-63
2021/11/04 00:43:21;;;;;;;1.50;1.40;;;;;;;7.21;93.86;95143.94;5104135;28;20195;-63
2021/11/04 00:45:46;;;;;;;1.20;1.17;;;;;;;7.29;93.54;95153.94;5093160;28;20187;-63
2021/11/04 00:48:11;;;;;;;1.60;1.50;;;;;;;7.41;92.84;95164.22;5092761;28;20215;-63
2021/11/04 00:50:37;;;;;;;1.70;1.63;;;;;;;7.53;92.01;95167.44;5092842;28;20229;-64
2021/11/04 00:53:02;;;;;;;1.40;1.40;;;;;;;7.51;92.00;95170.31;5098724;28;20192;-63
2021/11/04 00:55:28;;;;;;;1.80;1.70;;;;;;;7.49;91.86;95166.38;5093607;28;20181;-64
2021/11/04 00:57:53;;;;;;;1.57;1.47;;;;;;;7.49;92.61;95182.78;5094105;28;20192;-63
2021/11/04 01:00:19;;;;;;;1.50;1.40;;;;;;;7.50;92.70;95188.78;5093073;28;20209;-63
2021/11/04 01:02:45;;;;;;;1.37;1.33;;;;;;;7.51;92.25;95191.16;5104633;28;20623;-64
2021/11/04 01:05:11;;;;;;;1.50;1.40;;;;;;;7.56;91.49;95187.81;5097322;28;20223;-64
2021/11/04 01:07:37;;;;;;;1.70;1.60;;;;;;;7.29;93.07;95190.41;5117232;28;20198;-67
2021/11/04 01:10:04;;;;;;;1.50;1.40;;;;;;;7.11;95.11;95198.56;5108202;28;20173;-64
2021/11/04 01:12:29;;;;;;;1.63;1.53;;;;;;;7.28;94.42;95194.06;5104738;28;20199;-64
2021/11/04 01:14:55;;;;;;;1.70;1.60;;;;;;;7.35;93.95;95193.88;5117276;28;20184;-64
2021/11/04 01:17:20;;;;;;;1.63;1.53;;;;;;;7.35;93.04;95186.03;5114863;28;20188;-64
2021/11/04 01:19:46;;;;;;;1.83;1.73;;;;;;;7.38;92.50;95196.75;5110073;28;20175;-64
2021/11/04 01:22:11;;;;;;;1.53;1.43;;;;;;;7.43;92.40;95193.41;5106492;28;20283;-64
2021/11/04 01:24:37;;;;;;;1.67;1.57;;;;;;;7.43;93.06;95190.81;5115203;28;20651;-64
2021/11/04 01:27:02;;;;;;;1.83;1.57;;;;;;;7.26;93.97;95180.47;5115707;28;20218;-64
2021/11/04 01:29:28;;;;;;;1.60;1.50;;;;;;;7.23;94.59;95182.78;5096895;28;20184;-64
2021/11/04 01:31:54;;;;;;;1.53;1.43;;;;;;;7.39;92.55;95171.47;5096619;28;20177;-64
2021/11/04 01:34:19;;;;;;;1.70;1.60;;;;;;;7.31;92.77;95169.31;5096561;28;20187;-64
2021/11/04 01:36:45;;;;;;;1.50;1.40;;;;;;;7.43;91.84;95159.53;5096439;28;20192;-65
2021/11/04 01:39:10;;;;;;;1.20;1.20;;;;;;;7.33;93.11;95165.44;5100176;28;20663;-65
2021/11/04 01:41:36;;;;;;;1.30;1.23;;;;;;;7.16;94.06;95156.13;5096109;28;20208;-64
2021/11/04 01:44:01;;;;;;;1.23;1.23;;;;;;;7.12;95.14;95152.44;5096443;28;20586;-64
2021/11/04 01:46:27;;;;;;;1.60;1.50;;;;;;;7.02;96.13;95150.53;5097136;28;20227;-64
2021/11/04 01:48:52;;;;;;;1.50;1.40;;;;;;;7.10;96.00;95144.88;5109701;28;20187;-64
2021/11/04 01:51:19;;;;;;;1.40;1.40;;;;;;;7.13;96.42;95147.00;5111728;28;20181;-64
2021/11/04 01:53:47;;;;;;;1.40;1.30;;;;;;;7.04;95.73;95151.84;5094629;28;20183;-64
2021/11/04 01:56:13;;;;;;;1.30;1.20;;;;;;;6.97;97.69;95151.25;5097928;28;20180;-64
2021/11/04 01:58:38;;;;;;;1.40;1.30;;;;;;;7.10;95.27;95140.44;5110234;28;20183;-64
2021/11/04 02:01:05;;;;;;;1.07;1.07;;;;;;;7.10;95.50;95153.47;5115354;28;20640;-64
2021/11/04 02:03:52;;;;;;;1.47;1.37;;;;;;;6.94;97.46;95167.38;5113686;28;20712;-65
2021/11/04 02:06:45;;;;;;;1.43;1.33;;;;;;;6.84;99.24;95169.06;5077069;28;20164;-65
2021/11/04 02:09:15;;;;;;;1.03;1.03;;;;;;;6.90;98.09;95157.69;5096292;28;20188;-64
2021/11/04 02:11:45;;;;;;;1.60;1.50;;;;;;;6.97;98.54;95164.25;5095692;28;20184;-64
2021/11/04 02:14:13;;;;;;;1.83;1.27;;;;;;;6.89;98.58;95161.31;5101629;28;20180;-64
2021/11/04 02:16:40;;;;;;;1.20;1.20;;;;;;;7.00;98.75;95181.22;5106678;28;20548;-65
2021/11/04 02:19:24;;;;;;;1.47;1.37;;;;;;;6.92;99.86;95185.03;5085947;28;20637;-64
2021/11/04 02:21:57;;;;;;;2.00;1.20;;;;;;;6.63;100.00;95181.81;5104208;28;20172;-62
2021/11/04 02:24:45;;;;;;;1.33;1.30;;;;;;;6.78;100.00;95180.44;5107716;28;20539;-63
2021/11/04 02:27:13;;;;;;;1.10;1.10;;;;;;;6.85;100.00;95189.66;5093597;28;20236;-63
2021/11/04 02:29:40;;;;;;;1.33;1.33;;;;;;;6.54;100.00;95190.28;5094930;28;20183;-62
2021/11/04 02:32:08;;;;;;;1.30;1.27;;;;;;;6.44;100.00;95192.75;5095426;28;20188;-62
2021/11/04 02:34:35;;;;;;;1.60;1.50;;;;;;;6.32;100.00;95198.06;5101873;28;20184;-63
2021/11/04 02:37:01;;;;;;;1.40;1.30;;;;;;;6.45;100.00;95195.13;5096438;28;21742;-63
2021/11/04 02:39:29;;;;;;;2.73;1.40;;;;;;;6.63;100.00;95204.47;5096854;28;20271;-63
2021/11/04 02:41:54;;;;;;;1.57;1.57;;;;;;;6.71;100.00;95208.47;5106877;28;20525;-63
2021/11/04 02:44:21;;;;;;;1.30;1.30;;;;;;;6.47;100.00;95202.69;5111501;28;20222;-62
2021/11/04 02:46:47;;;;;;;1.70;1.60;;;;;;;6.66;100.00;95217.78;5094753;28;20200;-63
2021/11/04 02:49:12;;;;;;;2.20;2.00;;;;;;;6.46;100.00;95217.53;5113187;28;20252;-62
2021/11/04 02:51:38;;;;;;;1.77;1.67;;;;;;;6.43;100.00;95210.19;5114247;28;20180;-63
2021/11/04 02:54:08;;;;;;;1.77;1.67;;;;;;;6.49;100.00;95208.44;5096755;28;20184;-63
2021/11/04 02:56:46;;;;;;;1.73;1.60;;;;;;;6.36;100.00;95219.97;5104200;28;20192;-63
2021/11/04 02:59:14;;;;;;;1.83;1.73;;;;;;;6.46;100.00;95219.34;5096138;28;20185;-63
2021/11/04 03:01:42;;;;;;;1.80;1.70;;;;;;;6.53;100.00;95214.72;5098105;28;20184;-63
2021/11/04 03:04:08;;;;;;;1.70;1.60;;;;;;;6.48;100.00;95222.47;5112088;28;20272;-63
2021/11/04 03:06:33;;;;;;;1.80;1.70;;;;;;;6.47;100.00;95223.50;5114793;28;20367;-64
2021/11/04 03:08:59;;;;;;;1.90;1.80;;;;;;;6.62;100.00;95218.53;5095110;28;20199;-63
2021/11/04 03:11:24;;;;;;;1.50;1.43;;;;;;;6.44;100.00;95227.38;5094790;28;20216;-62
2021/11/04 03:13:49;;;;;;;1.90;1.80;;;;;;;6.40;100.00;95226.28;5106994;28;20169;-62
2021/11/04 03:16:18;;;;;;;1.57;1.47;;;;;;;6.44;100.00;95226.59;5103992;28;20272;-63
2021/11/04 03:18:44;;;;;;;1.70;1.60;;;;;;;6.36;100.00;95234.78;5095693;28;20185;-63
2021/11/04 03:21:11;;;;;;;2.17;1.30;;;;;;;6.36;100.00;95229.56;5106546;28;20273;-63
2021/11/04 03:23:36;;;;;;;1.50;1.50;;;;;;;6.45;100.00;95228.16;5103483;28;20180;-63
2021/11/04 03:26:03;;;;;;;1.40;1.30;;;;;;;6.45;100.00;95226.34;5093818;28;20633;-62
2021/11/04 03:28:31;;;;;;;1.70;1.60;;;;;;;6.41;100.00;95220.03;5100084;28;20168;-63
2021/11/04 03:30:58;;;;;;;1.47;1.40;;;;;;;6.52;100.00;95223.59;5114081;28;20216;-63
2021/11/04 03:33:25;;;;;;;1.40;1.40;;;;;;;6.33;100.00;95225.66;5099789;28;20601;-63
2021/11/04 03:35:50;;;;;;;1.10;1.10;;;;;;;6.32;100.00;95220.69;5094535;28;20185;-63
2021/11/04 03:38:16;;;;;;;1.00;1.00;;;;;;;6.25;100.00;95219.03;5098699;28;20241;-62
2021/11/04 03:40:42;;;;;;;1.00;1.00;;;;;;;6.14;100.00;95216.50;5113914;28;20566;-63
2021/11/04 03:43:09;;;;;;;0.97;0.97;;;;;;;6.13;100.00;95215.72;5113973;28;20299;-63
2021/11/04 03:45:36;;;;;;;1.27;0.90;;;;;;;6.16;100.00;95217.06;5101763;28;20180;-63
2021/11/04 03:48:04;;;;;;;0.90;0.90;;;;;;;6.18;100.00;95209.81;5093951;28;20287;-63
2021/11/04 03:50:32;;;;;;;1.60;1.03;;;;;;;5.99;100.00;95211.06;5093948;28;20181;-62
2021/11/04 03:52:57;;;;;;;0.97;0.97;;;;;;;5.98;100.00;95206.91;5093628;28;20653;-63
2021/11/04 03:55:25;;;;;;;0.90;0.90;;;;;;;6.01;100.00;95201.25;5094459;28;20263;-63
2021/11/04 03:57:52;;;;;;;0.97;0.90;;;;;;;6.16;100.00;95199.66;5093468;28;20679;-63
2021/11/04 04:00:18;;;;;;;0.80;0.80;;;;;;;5.83;100.00;95207.41;5096179;28;20189;-62
2021/11/04 04:02:45;;;;;;;0.80;0.80;;;;;;;5.91;100.00;95207.03;5104044;28;20660;-63
2021/11/04 04:05:11;;;;;;;0.90;0.90;;;;;;;5.88;100.00;95212.72;5103931;28;20228;-62
2021/11/04 04:07:37;;;;;;;1.33;1.07;;;;;;;5.95;100.00;95218.56;5095608;28;20201;-62
2021/11/04 04:10:03;;;;;;;1.67;1.07;;;;;;;5.97;100.00;95220.91;5097066;28;20184;-63
2021/11/04 04:12:28;;;;;;;0.90;0.90;;;;;;;6.01;100.00;95216.84;5113505;28;20218;-63
2021/11/04 04:14:54;;;;;;;1.00;1.00;;;;;;;6.00;99.79;95226.44;5112022;28;20184;-62
2021/11/04 04:17:21;;;;;;;0.80;0.80;;;;;;;5.88;99.35;95225.72;5093475;28;20184;-62
2021/11/04 04:19:50;;;;;;;0.80;0.80;;;;;;;6.01;97.99;95228.03;5093532;28;20671;-63
2021/11/04 04:22:16;;;;;;;1.00;1.00;;;;;;;5.93;98.63;95233.59;5112371;28;20704;-62
2021/11/04 04:24:42;;;;;;;0.97;0.97;;;;;;;5.88;99.79;95249.13;5113177;28;20192;-63
2021/11/04 04:27:07;;;;;;;1.00;1.00;;;;;;;6.09;97.77;95248.44;5112796;28;20203;-62
2021/11/04 04:29:33;;;;;;;0.90;0.90;;;;;;;6.00;98.34;95251.66;5102033;28;20552;-62
2021/11/04 04:31:59;;;;;;;1.00;1.00;;;;;;;5.99;97.60;95250.09;5108137;28;20184;-63
2021/11/04 04:34:25;;;;;;;0.90;0.90;;;;;;;5.91;97.95;95259.03;5106545;28;20732;-63
2021/11/04 04:36:51;;;;;;;1.00;1.00;;;;;;;5.93;98.22;95257.00;5090911;28;20168;-62
2021/11/04 04:39:17;;;;;;;1.03;1.03;;;;;;;5.71;98.64;95259.47;5094921;28;20655;-63
2021/11/04 04:41:42;;;;;;;1.00;1.00;;;;;;;5.74;100.00;95258.22;5094459;28;20198;-63
2021/11/04 04:44:08;;;;;;;1.20;1.20;;;;;;;5.64;100.00;95271.81;5074088;28;20185;-62
2021/11/04 04:46:33;;;;;;;1.60;1.27;;;;;;;5.72;100.00;95265.47;5093109;28;20208;-63
2021/11/04 04:48:59;;;;;;;1.03;1.03;;;;;;;5.85;99.61;95265.94;5093246;28;20204;-63
2021/11/04 04:51:24;;;;;;;1.17;1.17;;;;;;;5.83;99.27;95270.59;5094032;28;20181;-62
2021/11/04 04:53:50;;;;;;;0.93;0.93;;;;;;;6.00;98.87;95273.25;5112387;28;20305;-63
2021/11/04 04:56:15;;;;;;;1.30;1.30;;;;;;;5.89;99.61;95268.91;5112468;28;20188;-63
2021/11/04 04:58:41;;;;;;;1.03;1.03;;;;;;;5.98;99.17;95277.91;5091353;28;20325;-63
2021/11/04 05:01:07;;;;;;;1.00;1.00;;;;;;;5.99;99.39;95279.47;5093029;28;20172;-63
2021/11/04 05:03:32;;;;;;;1.03;1.03;;;;;;;5.96;98.91;95277.38;5110025;28;21739;-63
2021/11/04 05:05:57;;;;;;;1.27;1.20;;;;;;;5.95;99.74;95275.00;5093548;28;20236;-63
2021/11/04 05:08:23;;;;;;;1.53;1.10;;;;;;;5.82;100.00;95276.81;5112510;28;20199;-62
2021/11/04 05:10:48;;;;;;;1.37;1.27;;;;;;;6.00;98.39;95277.66;5112315;28;20251;-63
2021/11/04 05:13:14;;;;;;;2.87;1.17;;;;;;;6.05;98.29;95283.75;5113059;28;20572;-63
2021/11/04 05:15:39;;;;;;;1.10;1.10;;;;;;;5.82;99.67;95283.81;5112074;28;20176;-63
2021/11/04 05:18:07;;;;;;;1.20;1.10;;;;;;;5.86;99.73;95277.94;5092896;28;20216;-63
2021/11/04 05:20:33;;;;;;;1.10;1.10;;;;;;;5.79;100.00;95284.31;5092945;28;20173;-63
2021/11/04 05:22:59;;;;;;;0.90;0.90;;;;;;;5.77;99.79;95279.34;5092678;28;20195;-63
2021/11/04 05:25:24;;;;;;;1.10;1.10;;;;;;;5.83;98.06;95286.19;5096066;28;20184;-62
2021/11/04 05:27:50;;;;;;;4.93;1.00;;;;;;;5.80;97.94;95289.25;5094117;28;20204;-62
2021/11/04 05:30:17;;;;;;;0.90;0.90;;;;;;;5.68;98.00;95298.16;5092493;28;20173;-63
2021/11/04 05:32:43;;;;;;;1.10;1.10;;;;;;;5.80;96.11;95289.25;5104984;28;20271;-63
2021/11/04 05:35:08;;;;;;;1.00;1.00;;;;;;;5.67;96.97;95294.75;5095343;28;20260;-63
2021/11/04 05:37:34;;;;;;;1.00;1.00;;;;;;;5.80;96.78;95296.25;5090980;28;20625;-63
2021/11/04 05:40:00;;;;;;;0.70;0.70;;;;;;;5.76;96.79;95302.97;5099098;28;20243;-63
2021/11/04 05:42:25;;;;;;;0.80;0.80;;;;;;;5.71;96.22;95305.47;5112833;28;20180;-62
2021/11/04 05:44:50;;;;;;;0.83;0.83;;;;;;;5.71;96.91;95311.47;5094451;28;20215;-62
2021/11/04 05:47:16;;;;;;;1.07;1.00;;;;;;;5.69;96.29;95318.69;5105181;28;20587;-63
2021/11/04 05:49:42;;;;;;;1.10;1.10;;;;;;;5.67;97.31;95319.94;5095806;28;20181;-63
2021/11/04 05:52:07;;;;;;;1.00;1.00;;;;;;;5.63;96.64;95322.22;5112342;28;20270;-63
2021/11/04 05:54:33;;;;;;;1.10;1.10;;;;;;;5.59;98.00;95328.09;5095881;28;20217;-63
2021/11/04 05:56:58;;;;;;;0.90;0.90;;;;;;;5.68;97.53;95330.13;5115353;28;20555;-63
2021/11/04 05:59:24;;;;;;;0.97;0.97;;;;;;;5.74;96.27;95333.63;5115763;28;20203;-63
2021/11/04 06:01:49;;;;;;;1.03;1.03;;;;;;;5.62;97.99;95335.44;5107585;28;20610;-63
2021/11/04 06:04:15;;;;;;;1.27;1.17;;;;;;;5.74;97.01;95344.78;5096018;28;20229;-63
2021/11/04 06:06:40;;;;;;;1.10;1.10;;;;;;;5.58;97.94;95344.72;5096210;28;20207;-63
2021/11/04 06:09:05;;;;;;;1.20;1.20;;;;;;;5.59;98.32;95349.69;5094134;28;20263;-63
2021/11/04 06:11:31;;;;;;;1.70;1.10;;;;;;;5.61;98.34;95350.25;5096875;28;20583;-63
2021/11/04 06:13:56;;;;;;;1.10;1.10;;;;;;;5.68;97.37;95356.13;5095811;28;20176;-63
2021/11/04 06:16:22;;;;;;;1.40;1.30;;;;;;;5.61;98.22;95354.66;5106634;28;20195;-62
2021/11/04 06:18:47;;;;;;;1.10;1.10;;;;;;;5.72;97.81;95365.03;5114994;28;20612;-62
2021/11/04 06:21:13;;;;;;;0.93;0.93;;;;;;;5.74;97.79;95362.97;5094578;28;20180;-62
2021/11/04 06:23:40;;;;;;;1.50;1.40;;;;;;;5.62;97.55;95364.84;5095219;28;20641;-62
2021/11/04 06:26:05;;;;;;;1.00;1.00;;;;;;;5.67;96.85;95362.34;5095266;28;20176;-62
2021/11/04 06:28:31;;;;;;;1.07;1.07;;;;;;;5.82;95.45;95361.81;5093389;28;20736;-63
2021/11/04 06:30:56;;;;;;;1.20;1.20;;;;;;;5.60;97.69;95371.28;5095328;28;20208;-63
2021/11/04 06:33:21;;;;;;;1.30;1.30;;;;;;;5.79;96.20;95378.69;5097276;28;20193;-62
2021/11/04 06:35:47;;;;;;;1.60;1.50;;;;;;;5.88;96.25;95383.53;5114123;28;20214;-62
2021/11/04 06:38:12;;;;;;;1.70;1.60;;;;;;;5.86;95.99;95383.72;5115307;28;20192;-62
2021/11/04 06:40:38;;;;;;;1.70;1.60;;;;;;;5.79;96.94;95381.28;5099640;28;20637;-62
2021/11/04 06:43:03;;;;;;;2.80;1.67;;;;;;;5.75;96.63;95393.16;5096550;28;20189;-63
2021/11/04 06:45:32;;;;;;;1.50;1.40;;;;;;;5.83;96.11;95389.41;5110811;28;20242;-63
2021/11/04 06:48:00;;;;;;;1.70;1.60;;;;;;;5.83;95.91;95392.78;5104889;28;20192;-62
2021/11/04 06:50:33;;;;;;;1.90;1.63;;;;;;;5.74;96.56;95388.19;5094387;28;20203;-62
2021/11/04 06:53:08;;;;;;;2.60;1.73;;;;;;;5.86;95.64;95387.13;5112538;28;20176;-64
2021/11/04 06:55:43;;;;;;;1.30;1.30;;;;;;;5.80;94.87;95397.66;5113085;28;20255;-63
2021/11/04 06:58:14;;;;;;;1.33;1.33;;;;;;;5.89;95.61;95403.31;5115243;28;20561;-65
2021/11/04 07:00:45;;;;;;;1.43;1.40;;;;;;;6.09;93.90;95403.69;5111601;28;20197;-64
2021/11/04 07:03:27;;;;;;;1.37;1.33;;;;;;;6.11;94.03;95417.25;5094552;28;20192;-63
2021/11/04 07:06:08;;;;;;;1.70;1.60;;;;;;;6.02;93.56;95416.06;5093292;28;20520;-63
2021/11/04 07:08:41;;;;;;;2.10;1.90;;;;;;;5.98;94.93;95420.13;5105339;28;20231;-63
2021/11/04 07:11:07;;;;;;;1.70;1.60;;;;;;;6.11;94.15;95425.06;5094981;28;20217;-63
2021/11/04 07:13:33;;;;;;;1.30;1.30;;;;;;;5.98;95.94;95428.72;5094476;28;20176;-63
2021/11/04 07:16:01;;;;;;;1.40;1.40;;;;;;;5.90;96.03;95431.69;5094646;28;20184;-63
2021/11/04 07:18:27;;;;;;;1.50;1.40;;;;;;;5.85;96.39;95442.72;5100293;28;20267;-63
2021/11/04 07:20:59;;;;;;;1.13;1.13;;;;;;;5.84;97.20;95448.97;5113875;28;20245;-64
2021/11/04 07:23:57;;;;;;;1.10;1.10;;;;;;;6.01;95.40;95448.28;5091403;28;20176;-63
2021/11/04 07:26:31;;;;;;;1.30;1.30;;;;;;;6.01;95.58;95451.69;5095271;28;20191;-63
2021/11/04 07:28:57;;;;;;;1.10;1.10;;;;;;;5.85;96.19;95460.94;5113549;28;20188;-67
2021/11/04 07:31:26;;;;;;;1.40;1.30;;;;;;;6.04;95.39;95459.00;5113668;28;20172;-64
2021/11/04 07:33:51;;;;;;;1.20;1.20;;;;;;;5.92;95.54;95463.44;5103467;28;20172;-63
2021/11/04 07:36:20;;;;;;;1.37;1.30;;;;;;;5.88;96.48;95462.31;5091670;28;20226;-63
2021/11/04 07:38:47;;;;;;;1.77;1.67;;;;;;;6.07;96.25;95463.78;5094094;28;20532;-64
2021/11/04 07:41:13;;;;;;;1.50;1.40;;;;;;;5.97;96.38;95473.16;5111600;28;20192;-65
2021/11/04 07:43:39;;;;;;;1.30;1.20;;;;;;;6.03;95.74;95475.63;5093712;28;20177;-64
2021/11/04 07:46:04;;;;;;;4.67;1.43;;;;;;;5.99;97.80;95477.13;5101093;28;20187;-65
2021/11/04 07:48:30;;;;;;;1.50;1.40;;;;;;;5.89;97.26;95481.31;5113546;28;20195;-65
2021/11/04 07:50:57;;;;;;;2.03;1.40;;;;;;;6.16;96.29;95480.56;5113674;28;20203;-64
2021/11/04 07:53:22;;;;;;;1.60;1.50;;;;;;;6.26;95.24;95482.56;5096552;28;20212;-64
2021/11/04 07:55:49;;;;;;;1.47;1.37;;;;;;;6.37;94.52;95486.94;5100758;28;20197;-65
2021/11/04 07:58:14;;;;;;;3.27;1.40;;;;;;;6.31;94.46;95482.66;5093304;28;20184;-65
2021/11/04 08:00:41;;;;;;;1.20;1.20;;;;;;;6.23;96.36;95488.25;5101276;28;20191;-64
2021/11/04 08:03:07;;;;;;;1.30;1.30;;;;;;;6.13;97.54;95490.66;5100611;28;20259;-66
2021/11/04 08:05:33;;;;;;;1.20;1.20;;;;;;;6.22;96.83;95491.88;5093803;28;20283;-66
2021/11/04 08:07:58;;;;;;;1.60;1.50;;;;;;;6.16;97.34;95495.41;5113244;28;20294;-66
2021/11/04 08:10:24;;;;;;;1.50;1.40;;;;;;;5.94;98.37;95499.63;5111223;28;20195;-66
2021/11/04 08:12:49;;;;;;;2.30;1.27;;;;;;;6.01;99.79;95501.09;5099731;28;20249;-66
2021/11/04 08:15:15;;;;;;;1.40;1.30;;;;;;;6.08;99.41;95503.53;5100185;28;20632;-66
2021/11/04 08:17:41;;;;;;;1.53;1.43;;;;;;;5.86;100.00;95498.13;5095963;28;20658;-66
2021/11/04 08:20:08;;;;;;;1.43;1.33;;;;;;;6.00;100.00;95498.72;5107701;28;20321;-66
2021/11/04 08:22:35;;;;;;;1.50;1.40;;;;;;;5.94;100.00;95499.63;5097127;28;20187;-66
2021/11/04 08:25:02;;;;;;;1.37;1.33;;;;;;;5.73;100.00;95504.38;5097819;28;20180;-66
2021/11/04 08:27:28;;;;;;;1.70;1.60;;;;;;;5.78;100.00;95511.50;5112877;28;20212;-67
2021/11/04 08:29:53;;;;;;;1.80;1.70;;;;;;;5.88;100.00;95513.53;5112476;28;20179;-67
2021/11/04 08:32:19;;;;;;;1.80;1.70;;;;;;;5.86;100.00;95511.91;5103095;28;20207;-67
2021/11/04 08:34:44;;;;;;;1.70;1.60;;;;;;;5.97;100.00;95517.34;5092838;28;20185;-68
2021/11/04 08:37:10;;;;;;;1.80;1.70;;;;;;;5.86;100.00;95522.31;5093240;28;20191;-67
2021/11/04 08:39:37;;;;;;;1.90;1.80;;;;;;;6.04;100.00;95520.63;5094961;28;20211;-67
2021/11/04 08:42:04;;;;;;;1.70;1.60;;;;;;;6.04;100.00;95521.44;5100974;28;20193;-67
2021/11/04 08:44:30;;;;;;;1.93;1.70;;;;;;;6.11;100.00;95532.50;5112442;28;20184;-67
2021/11/04 08:46:55;;;;;;;1.70;1.60;;;;;;;6.22;100.00;95526.50;5101131;28;20204;-68
2021/11/04 08:49:21;;;;;;;2.00;1.90;;;;;;;6.14;100.00;95531.25;5094855;28;20169;-67
2021/11/04 08:51:47;;;;;;;1.57;1.47;;;;;;;6.17;100.00;95533.41;5108799;28;20540;-67
2021/11/04 08:54:13;;;;;;;1.70;1.60;;;;;;;6.10;100.00;95538.72;5106142;28;20192;-67
2021/11/04 08:56:39;;;;;;;2.63;1.73;;;;;;;6.20;100.00;95538.13;5103129;28;20184;-67
2021/11/04 08:59:05;;;;;;;2.13;1.97;;;;;;;6.16;100.00;95543.00;5102085;28;20176;-67
2021/11/04 09:01:34;;;;;;;2.00;1.90;;;;;;;6.19;100.00;95541.75;5097299;28;20188;-66
2021/11/04 09:03:59;;;;;;;1.90;1.80;;;;;;;6.32;100.00;95544.09;5107408;28;20269;-66
2021/11/04 09:06:25;;;;;;;1.73;1.60;;;;;;;6.31;100.00;95552.13;5090771;28;20196;-66
2021/11/04 09:08:50;;;;;;;1.97;1.80;;;;;;;6.36;100.00;95554.84;5093845;28;20179;-66
2021/11/04 09:11:16;;;;;;;1.80;1.70;;;;;;;6.46;100.00;95552.44;5096757;28;20180;-66
2021/11/04 09:13:42;;;;;;;1.80;1.70;;;;;;;6.41;100.00;95562.75;5112257;28;20191;-66
2021/11/04 09:16:07;;;;;;;1.80;1.70;;;;;;;6.43;100.00;95571.91;5093398;28;20228;-67
2021/11/04 09:18:33;;;;;;;1.80;1.70;;;;;;;6.45;100.00;95567.28;5110971;28;20203;-68
2021/11/04 09:20:58;;;;;;;1.90;1.80;;;;;;;6.61;100.00;95578.78;5092375;28;20184;-65
2021/11/04 09:23:24;;;;;;;2.03;1.90;;;;;;;6.50;100.00;95575.19;5093228;28;20625;-67
2021/11/04 09:25:49;;;;;;;1.70;1.60;;;;;;;6.45;100.00;95585.50;5097254;28;20178;-66
2021/11/04 09:28:15;;;;;;;2.60;1.50;;;;;;;6.49;100.00;95585.81;5114640;28;20733;-65
2021/11/04 09:30:42;;;;;;;1.97;1.77;;;;;;;6.42;100.00;95591.13;5112195;28;20186;-68
2021/11/04 09:33:08;;;;;;;1.60;1.60;;;;;;;6.44;100.00;95593.53;5110514;28;20180;-68
2021/11/04 09:35:36;;;;;;;1.63;1.53;;;;;;;6.46;100.00;95605.31;5095522;28;20192;-68
2021/11/04 09:38:02;;;;;;;1.50;1.40;;;;;;;6.45;100.00;95613.31;5095695;28;20180;-68
2021/11/04 09:40:28;;;;;;;1.53;1.43;;;;;;;6.52;100.00;95608.78;5112144;28;20186;-68
2021/11/04 09:42:53;;;;;;;1.60;1.50;;;;;;;6.38;100.00;95620.47;5099929;28;20173;-68
2021/11/04 09:45:19;;;;;;;2.20;1.50;;;;;;;6.43;100.00;95626.56;5094935;28;20574;-68
2021/11/04 09:47:45;;;;;;;1.30;1.30;;;;;;;6.43;100.00;95623.16;5101898;28;20264;-68
2021/11/04 09:50:13;;;;;;;1.30;1.30;;;;;;;6.28;100.00;95634.06;5115445;28;20211;-68
2021/11/04 09:52:41;;;;;;;1.50;1.40;;;;;;;6.52;100.00;95632.97;5115374;28;20249;-68
2021/11/04 09:55:10;;;;;;;2.70;1.27;;;;;;;6.48;100.00;95638.88;5096915;28;20180;-68
2021/11/04 09:57:38;;;;;;;1.23;1.17;;;;;;;6.50;100.00;95640.25;5108475;28;20199;-68
2021/11/04 10:00:05;;;;;;;0.97;0.97;;;;;;;6.50;100.00;95648.06;5111457;28;20197;-68
2021/11/04 10:02:30;;;;;;;1.30;1.30;;;;;;;6.29;100.00;95655.66;5102784;28;20275;-68
2021/11/04 10:05:08;;;;;;;1.13;1.13;;;;;;;6.38;100.00;95669.91;5106266;28;20303;-68
2021/11/04 10:07:42;;;;;;;1.07;1.07;;;;;;;6.30;100.00;95663.22;5095549;28;20676;-68
2021/11/04 10:10:08;;;;;;;1.10;1.00;;;;;;;6.24;100.00;95669.34;5095174;28;20629;-68
2021/11/04 10:12:33;;;;;;;1.00;1.00;;;;;;;6.29;100.00;95673.88;5095402;28;20223;-68
2021/11/04 10:15:15;;;;;;;1.60;0.90;;;;;;;6.11;100.00;95677.38;5105528;28;20211;-68
2021/11/04 10:17:40;;;;;;;1.17;0.70;;;;;;;5.99;100.00;95679.97;5114851;28;20176;-68
2021/11/04 10:20:30;;;;;;;0.70;0.70;;;;;;;5.93;100.00;95682.66;5107804;28;20636;-68
2021/11/04 10:23:07;;;;;;;1.00;1.00;;;;;;;6.02;100.00;95683.94;5087175;28;20226;-67
2021/11/04 10:25:33;;;;;;;0.70;0.70;;;;;;;6.17;100.00;95684.28;5110878;28;20179;-68
2021/11/04 10:27:59;;;;;;;1.00;1.00;;;;;;;6.19;100.00;95684.81;5113873;28;20219;-68
2021/11/04 10:30:40;;;;;;;1.07;0.90;;;;;;;6.32;100.00;95684.63;5091325;28;20282;-68
2021/11/04 10:33:23;;;;;;;0.80;0.80;;;;;;;6.36;100.00;95692.75;5094641;28;20185;-69
2021/11/04 10:36:16;;;;;;;0.90;0.90;;;;;;;6.36;100.00;95696.13;5095233;28;20656;-68
2021/11/04 10:38:57;;;;;;;0.80;0.80;;;;;;;6.55;100.00;95704.63;5091169;28;20290;-68
2021/11/04 10:41:29;;;;;;;0.73;0.73;;;;;;;6.71;100.00;95706.53;5107482;28;20647;-68
2021/11/04 10:44:02;;;;;;;1.00;1.00;;;;;;;6.73;100.00;95703.72;5095592;28;20184;-68
2021/11/04 10:46:30;;;;;;;0.80;0.80;;;;;;;6.82;100.00;95710.16;5094971;28;20180;-68
2021/11/04 10:49:03;;;;;;;0.90;0.90;;;;;;;6.72;100.00;95720.34;5100276;28;20514;-68
2021/11/04 10:51:30;;;;;;;1.00;1.00;;;;;;;6.73;100.00;95722.72;5108562;28;20184;-69
2021/11/04 10:54:08;;;;;;;0.90;0.90;;;;;;;6.87;100.00;95724.06;5092676;28;20197;-70
2021/11/04 10:56:36;;;;;;;1.30;1.00;;;;;;;6.95;100.00;95730.75;5095554;28;20251;-68
2021/11/04 10:59:16;;;;;;;1.00;1.00;;;;;;;6.97;100.00;95739.09;5107036;28;20204;-69
2021/11/04 11:01:45;;;;;;;1.00;1.00;;;;;;;7.04;100.00;95737.16;5096969;28;20232;-69
2021/11/04 11:04:14;;;;;;;0.90;0.90;;;;;;;7.06;100.00;95743.75;5092594;28;20236;-69
2021/11/04 11:06:51;;;;;;;1.13;0.93;;;;;;;6.84;100.00;95745.38;5097129;28;20177;-69
2021/11/04 11:09:25;;;;;;;1.00;1.00;;;;;;;6.85;100.00;95749.56;5090632;28;20184;-69
2021/11/04 11:11:53;;;;;;;1.10;1.00;;;;;;;7.01;100.00;95756.66;5095850;28;20165;-69
2021/11/04 11:14:21;;;;;;;1.27;1.17;;;;;;;7.06;100.00;95755.97;5107733;28;20180;-69
2021/11/04 11:16:48;;;;;;;1.07;1.07;;;;;;;7.08;100.00;95759.91;5111022;28;20176;-69
2021/11/04 11:19:40;;;;;;;3.47;1.10;;;;;;;7.21;100.00;95760.69;5073910;28;20323;-69
2021/11/04 11:22:07;;;;;;;1.00;1.00;;;;;;;7.00;100.00;95770.72;5084314;28;20173;-69
2021/11/04 11:24:37;;;;;;;1.23;1.13;;;;;;;7.01;100.00;95771.50;5101686;28;20180;-69
2021/11/04 11:27:06;;;;;;;0.93;0.93;;;;;;;6.60;100.00;95780.22;5095320;28;20201;-69
2021/11/04 11:29:33;;;;;;;1.63;1.52;;;;;;;6.73;100.00;95784.44;5093073;28;20386;-69
2021/11/04 11:31:59;;;;;;;1.38;1.38;;;;;;;6.90;100.00;95783.53;5097568;28;20397;-69
2021/11/04 11:34:26;;;;;;;2.13;1.47;;;;;;;6.77;100.00;95790.75;5093848;28;20180;-69
2021/11/04 11:37:06;;;;;;;1.27;1.27;;;;;;;6.82;100.00;95786.47;5098319;28;20185;-68
2021/11/04 11:40:05;;;;;;;1.50;1.40;;;;;;;6.71;100.00;95792.47;5098389;28;20187;-66
2021/11/04 11:42:31;;;;;;;1.47;1.43;;;;;;;6.76;100.00;95794.38;5114197;28;20263;-68